createdAt,value
2022-08-22T00:00:20.726Z,99938.42
2022-08-22T00:02:47.979Z,99883.38
2022-08-22T00:02:48.505Z,99898.05
2022-08-22T00:02:54.108Z,99904.45
2022-08-22T00:03:06.814Z,99924.15
2022-08-22T00:05:56.044Z,99936.09
2022-08-22T00:08:32.061Z,99933.11
2022-08-22T00:11:12.331Z,99933.03
2022-08-22T00:14:01.103Z,99933.06
2022-08-22T00:16:54.612Z,99935.84
2022-08-22T00:19:45.183Z,99938.27
2022-08-22T00:22:28.670Z,99937.69
2022-08-22T00:25:07.242Z,99936.01
2022-08-22T00:28:06.363Z,99935.31
2022-08-22T00:30:42.437Z,99938.37
2022-08-22T00:33:29.072Z,99939.98
2022-08-22T00:36:13.379Z,99944.61
2022-08-22T00:38:49.020Z,99944.73
2022-08-22T00:41:35.593Z,99950.20
2022-08-22T00:44:17.274Z,99949.66
2022-08-22T00:47:03.541Z,99948.52
2022-08-22T00:49:51.148Z,99952.20
2022-08-22T00:52:41.483Z,99953.42
2022-08-22T00:55:41.057Z,99953.98
2022-08-22T00:58:28.386Z,99952.33
2022-08-22T01:01:03.493Z,99958.84
2022-08-22T01:04:07.156Z,99962.43
2022-08-22T01:06:49.551Z,99967.55
2022-08-22T01:09:32.918Z,99968.63
2022-08-22T01:12:32.323Z,99967.58
2022-08-22T01:15:05.453Z,99974.48
2022-08-22T01:17:44.275Z,99970.39
2022-08-22T01:20:47.588Z,99967.36
2022-08-22T01:23:40.558Z,99966.05
2022-08-22T01:26:41.778Z,99967.84
2022-08-22T01:29:28.512Z,99966.92
2022-08-22T01:32:15.060Z,99967.92
2022-08-22T01:34:56.401Z,99971.80
2022-08-22T01:37:45.974Z,99972.46
2022-08-22T01:40:25.685Z,99969.66
2022-08-22T01:43:20.239Z,99970.77
2022-08-22T01:46:06.795Z,99968.16
2022-08-22T01:48:49.189Z,99965.77
2022-08-22T01:51:45.808Z,99968.09
2022-08-22T01:54:31.384Z,99968.81
2022-08-22T01:57:03.183Z,99964.75
2022-08-22T01:59:48.019Z,99967.02
2022-08-22T02:02:23.720Z,99967.59
2022-08-22T02:05:11.656Z,99964.25
2022-08-22T02:08:21.745Z,99965.16
2022-08-22T02:11:20.547Z,99965.27
2022-08-22T02:14:13.433Z,99965.95
2022-08-22T02:16:48.223Z,99969.17
2022-08-22T02:19:15.626Z,99966.47
2022-08-22T02:21:58.694Z,99969.61
2022-08-22T02:24:38.177Z,99971.01
2022-08-22T02:27:22.891Z,99973.13
2022-08-22T02:30:14.725Z,99974.08
2022-08-22T02:32:42.074Z,99975.40
2022-08-22T02:35:26.598Z,99971.40
2022-08-22T02:37:57.492Z,99975.89
2022-08-22T02:40:32.366Z,99977.17
2022-08-22T02:43:02.553Z,99976.98
2022-08-22T02:45:50.947Z,99980.05
2022-08-22T02:48:34.118Z,99984.70
2022-08-22T02:51:33.839Z,99986.11
2022-08-22T02:54:18.252Z,99988.42
2022-08-22T02:57:06.865Z,99986.56
2022-08-22T03:00:01.910Z,99986.05
2022-08-22T03:02:38.651Z,99990.02
2022-08-22T03:05:38.167Z,99990.58
2022-08-22T03:08:12.981Z,99992.81
2022-08-22T03:11:10.579Z,99994.52
2022-08-22T03:13:41.246Z,99998.78
2022-08-22T03:16:24.646Z,99994.96
2022-08-22T03:19:08.405Z,99996.91
2022-08-22T03:21:52.196Z,99996.30
2022-08-22T03:24:26.632Z,99998.77
2022-08-22T03:27:10.568Z,99992.30
2022-08-22T03:29:45.846Z,99996.04
2022-08-22T03:32:22.879Z,99995.23
2022-08-22T03:35:01.904Z,99990.81
2022-08-22T03:37:40.427Z,99990.48
2022-08-22T03:40:31.484Z,99989.07
2022-08-22T03:43:31.547Z,99987.90
2022-08-22T03:46:28.302Z,99991.32
2022-08-22T03:49:12.286Z,99991.64
2022-08-22T03:51:58.487Z,99990.55
2022-08-22T03:54:57.990Z,99994.30
2022-08-22T03:57:31.414Z,99991.70
2022-08-22T04:00:20.715Z,99993.23
2022-08-22T04:03:04.869Z,99997.94
2022-08-22T04:06:12.838Z,99996.83
2022-08-22T04:08:58.620Z,100000.73
2022-08-22T04:12:00.458Z,99998.11
2022-08-22T04:14:59.524Z,100005.21
2022-08-22T04:17:51.542Z,100006.75
2022-08-22T04:20:42.358Z,100008.46
2022-08-22T04:23:41.805Z,100009.55
2022-08-22T04:26:17.304Z,100015.32
2022-08-22T04:29:09.206Z,100015.17
2022-08-22T04:31:46.335Z,100011.50
2022-08-22T04:34:26.172Z,100010.09
2022-08-22T04:37:04.341Z,100014.85
2022-08-22T04:39:38.728Z,100012.46
2022-08-22T04:42:36.681Z,100007.53
2022-08-22T04:45:27.325Z,100011.86
2022-08-22T04:48:00.412Z,100012.55
2022-08-22T04:50:41.213Z,100018.23
2022-08-22T04:53:10.575Z,100018.39
2022-08-22T04:56:10.046Z,100020.30
2022-08-22T04:58:58.275Z,100017.08
2022-08-22T05:01:39.668Z,100017.23
2022-08-22T05:04:25.461Z,100015.80
2022-08-22T05:07:10.926Z,100018.21
2022-08-22T05:09:44.589Z,100026.02
2022-08-22T05:12:19.864Z,100029.37
2022-08-22T05:14:54.509Z,100025.65
2022-08-22T05:17:26.776Z,100033.63
2022-08-22T05:20:00.347Z,100036.59
2022-08-22T05:22:32.028Z,100035.23
2022-08-22T05:25:05.154Z,100035.70
2022-08-22T05:27:40.870Z,100035.56
2022-08-22T05:30:15.971Z,100036.20
2022-08-22T05:33:13.319Z,100038.56
2022-08-22T05:35:58.251Z,100036.21
2022-08-22T05:38:31.509Z,100036.06
2022-08-22T05:41:18.319Z,100039.39
2022-08-22T05:43:48.799Z,100039.02
2022-08-22T05:46:27.135Z,100034.02
2022-08-22T05:48:59.724Z,100036.25
2022-08-22T05:51:38.310Z,100034.77
2022-08-22T05:54:19.700Z,100033.89
2022-08-22T05:56:54.735Z,100034.39
2022-08-22T05:59:27.705Z,100037.33
2022-08-22T06:02:13.813Z,100037.88
2022-08-22T06:04:47.099Z,100035.73
2022-08-22T06:07:16.878Z,100037.34
2022-08-22T06:09:47.036Z,100039.08
2022-08-22T06:12:27.925Z,100042.58
2022-08-22T06:15:20.834Z,100040.83
2022-08-22T06:17:55.279Z,100042.23
2022-08-22T06:20:39.529Z,100041.18
2022-08-22T06:23:08.912Z,100041.01
2022-08-22T06:25:40.201Z,100044.71
2022-08-22T06:28:11.516Z,100045.33
2022-08-22T06:30:40.000Z,100048.01
2022-08-22T06:33:12.592Z,100043.11
2022-08-22T06:36:00.641Z,100046.22
2022-08-22T06:38:35.480Z,100044.86
2022-08-22T06:41:09.216Z,100052.61
2022-08-22T06:43:43.168Z,100056.73
2022-08-22T06:46:14.829Z,100060.19
2022-08-22T06:48:44.542Z,100058.67
2022-08-22T06:51:15.296Z,100062.22
2022-08-22T06:53:48.457Z,100066.14
2022-08-22T06:56:36.178Z,100065.71
2022-08-22T06:59:11.966Z,100069.54
2022-08-22T07:02:03.571Z,100068.80
2022-08-22T07:04:31.602Z,100066.39
2022-08-22T07:07:01.210Z,100068.69
2022-08-22T07:09:37.093Z,100068.00
2022-08-22T07:12:13.915Z,100069.73
2022-08-22T07:14:44.982Z,100075.44
2022-08-22T07:17:27.089Z,100076.91
2022-08-22T07:20:26.767Z,100076.14
2022-08-22T07:23:06.482Z,100071.77
2022-08-22T07:25:59.727Z,100078.79
2022-08-22T07:28:58.433Z,100076.13
2022-08-22T07:31:37.309Z,100079.61
2022-08-22T07:34:21.904Z,100083.57
2022-08-22T07:37:10.881Z,100087.16
2022-08-22T07:39:53.781Z,100087.99
2022-08-22T07:42:36.248Z,100087.50
2022-08-22T07:45:16.032Z,100086.06
2022-08-22T07:47:52.578Z,100087.39
2022-08-22T07:50:26.724Z,100094.92
2022-08-22T07:53:13.506Z,100094.61
2022-08-22T07:55:49.755Z,100096.83
2022-08-22T07:58:19.822Z,100096.21
2022-08-22T08:00:49.089Z,100098.06
2022-08-22T08:03:20.622Z,100095.65
2022-08-22T08:05:48.996Z,100095.55
2022-08-22T08:08:36.259Z,100099.48
2022-08-22T08:11:05.197Z,100102.54
2022-08-22T08:13:42.639Z,100108.56
2022-08-22T08:16:17.766Z,100108.51
2022-08-22T08:18:48.411Z,100112.02
2022-08-22T08:21:36.094Z,100111.50
2022-08-22T08:24:07.823Z,100108.91
2022-08-22T08:27:03.383Z,100108.33
2022-08-22T08:29:32.241Z,100106.02
2022-08-22T08:32:01.660Z,100104.40
2022-08-22T08:34:34.701Z,100104.08
2022-08-22T08:37:35.010Z,100105.62
2022-08-22T08:40:18.646Z,100103.92
2022-08-22T08:43:33.712Z,100104.80
2022-08-22T08:46:27.877Z,100100.43
2022-08-22T08:49:11.374Z,100102.83
2022-08-22T08:51:57.702Z,100106.14
2022-08-22T08:54:55.484Z,100104.65
2022-08-22T08:57:37.842Z,100104.45
2022-08-22T09:00:17.276Z,100099.53
2022-08-22T09:03:01.227Z,100103.80
2022-08-22T09:05:50.673Z,100099.04
2022-08-22T09:08:42.349Z,100099.63
2022-08-22T09:11:28.294Z,100101.89
2022-08-22T09:14:27.283Z,100096.38
2022-08-22T09:17:27.559Z,100098.91
2022-08-22T09:20:17.868Z,100099.87
2022-08-22T09:23:17.065Z,100101.56
2022-08-22T09:25:50.907Z,100103.27
2022-08-22T09:28:38.641Z,100104.91
2022-08-22T09:31:16.898Z,100107.51
2022-08-22T09:34:08.537Z,100111.23
2022-08-22T09:36:45.219Z,100115.55
2022-08-22T09:39:43.041Z,100116.44
2022-08-22T09:42:29.657Z,100115.18
2022-08-22T09:45:39.641Z,100119.95
2022-08-22T09:48:23.853Z,100119.30
2022-08-22T09:51:31.222Z,100113.96
2022-08-22T09:54:32.885Z,100116.80
2022-08-22T09:57:17.506Z,100120.05
2022-08-22T09:59:58.171Z,100125.39
2022-08-22T10:02:43.243Z,100126.12
2022-08-22T10:05:41.063Z,100123.90
2022-08-22T10:08:19.822Z,100117.25
2022-08-22T10:11:19.843Z,100114.91
2022-08-22T10:14:02.484Z,100115.70
2022-08-22T10:17:07.401Z,100115.88
2022-08-22T10:19:43.924Z,100116.31
2022-08-22T10:22:44.715Z,100115.52
2022-08-22T10:25:14.986Z,100120.66
2022-08-22T10:28:05.015Z,100121.09
2022-08-22T10:30:45.705Z,100116.64
2022-08-22T10:33:31.648Z,100112.31
2022-08-22T10:36:27.842Z,100110.45
2022-08-22T10:38:59.344Z,100110.80
2022-08-22T10:41:51.229Z,100109.81
2022-08-22T10:44:38.539Z,100110.34
2022-08-22T10:47:15.807Z,100109.96
2022-08-22T10:49:53.424Z,100115.30
2022-08-22T10:52:31.772Z,100110.70
2022-08-22T10:55:14.170Z,100110.16
2022-08-22T10:58:14.852Z,100110.52
2022-08-22T11:00:52.634Z,100111.77
2022-08-22T11:03:27.503Z,100111.54
2022-08-22T11:06:01.411Z,100107.57
2022-08-22T11:08:53.777Z,100102.09
2022-08-22T11:11:37.171Z,100105.89
2022-08-22T11:14:37.819Z,100100.73
2022-08-22T11:17:30.273Z,100095.27
2022-08-22T11:20:20.542Z,100095.75
2022-08-22T11:23:16.398Z,100096.74
2022-08-22T11:25:56.723Z,100102.69
2022-08-22T11:28:44.608Z,100102.17
2022-08-22T11:31:47.208Z,100103.83
2022-08-22T11:34:34.490Z,100101.88
2022-08-22T11:37:23.994Z,100105.20
2022-08-22T11:40:41.913Z,100105.73
2022-08-22T11:43:43.435Z,100105.24
2022-08-22T11:46:19.926Z,100105.80
2022-08-22T11:48:59.648Z,100100.67
2022-08-22T11:52:00.843Z,100101.39
2022-08-22T11:54:39.396Z,100104.48
2022-08-22T11:57:28.687Z,100107.79
2022-08-22T12:00:20.719Z,100110.42
2022-08-22T12:03:12.561Z,100105.46
2022-08-22T12:06:13.077Z,100105.83
2022-08-22T12:08:51.711Z,100103.01
2022-08-22T12:11:39.092Z,100102.45
2022-08-22T12:14:18.039Z,100098.52
2022-08-22T12:17:50.567Z,100092.57
2022-08-22T12:20:25.141Z,100090.45
2022-08-22T12:23:43.468Z,100094.92
2022-08-22T12:26:35.137Z,100096.88
2022-08-22T12:29:27.446Z,100096.42
2022-08-22T12:32:27.418Z,100095.38
2022-08-22T12:35:29.879Z,100095.38
2022-08-22T12:38:29.411Z,100093.71
2022-08-22T12:41:28.053Z,100092.67
2022-08-22T12:44:34.524Z,100084.36
2022-08-22T12:47:34.417Z,100089.98
2022-08-22T12:50:38.373Z,100085.67
2022-08-22T12:53:44.630Z,100088.89
2022-08-22T12:56:18.268Z,100089.30
2022-08-22T12:59:17.705Z,100091.21
2022-08-22T13:01:49.599Z,100089.20
2022-08-22T13:04:33.331Z,100088.85
2022-08-22T13:07:33.638Z,100089.16
2022-08-22T13:10:23.574Z,100087.66
2022-08-22T13:12:56.776Z,100089.31
2022-08-22T13:15:29.070Z,100092.70
2022-08-22T13:18:18.944Z,100090.01
2022-08-22T13:20:51.844Z,100092.96
2022-08-22T13:23:30.604Z,100091.02
2022-08-22T13:26:07.689Z,100089.43
2022-08-22T13:28:45.633Z,100090.67
2022-08-22T13:31:28.848Z,100087.25
2022-08-22T13:34:39.961Z,100081.86
2022-08-22T13:37:14.896Z,100079.30
2022-08-22T13:39:49.088Z,100078.66
2022-08-22T13:42:29.870Z,100080.11
2022-08-22T13:45:05.328Z,100086.09
2022-08-22T13:47:39.882Z,100090.37
2022-08-22T13:50:20.593Z,100087.91
2022-08-22T13:52:56.744Z,100087.73
2022-08-22T13:55:42.963Z,100094.55
2022-08-22T13:58:11.450Z,100091.79
2022-08-22T14:01:01.363Z,100085.10
2022-08-22T14:03:39.060Z,100082.80
2022-08-22T14:06:35.206Z,100078.67
2022-08-22T14:09:31.977Z,100081.75
2022-08-22T14:12:24.351Z,100077.36
2022-08-22T14:15:09.462Z,100076.69
2022-08-22T14:17:44.627Z,100073.03
2022-08-22T14:20:32.532Z,100068.64
2022-08-22T14:23:10.327Z,100068.03
2022-08-22T14:25:41.687Z,100071.48
2022-08-22T14:28:27.522Z,100068.42
2022-08-22T14:31:14.186Z,100060.89
2022-08-22T14:33:49.039Z,100064.37
2022-08-22T14:36:24.557Z,100065.54
2022-08-22T14:39:10.040Z,100067.86
2022-08-22T14:41:56.523Z,100069.20
2022-08-22T14:44:35.961Z,100073.11
2022-08-22T14:47:34.527Z,100073.22
2022-08-22T14:50:09.480Z,100077.29
2022-08-22T14:52:43.281Z,100079.19
2022-08-22T14:55:15.546Z,100073.51
2022-08-22T14:57:49.392Z,100071.70
2022-08-22T15:00:41.527Z,100064.62
2022-08-22T15:03:14.340Z,100071.67
2022-08-22T15:06:05.897Z,100063.44
2022-08-22T15:08:47.839Z,100062.33
2022-08-22T15:11:47.235Z,100067.06
2022-08-22T15:14:29.721Z,100070.90
2022-08-22T15:17:01.452Z,100071.08
2022-08-22T15:19:47.967Z,100065.61
2022-08-22T15:22:27.671Z,100066.21
2022-08-22T15:25:02.826Z,100063.86
2022-08-22T15:27:35.926Z,100059.84
2022-08-22T15:30:20.399Z,100062.35
2022-08-22T15:32:49.222Z,100058.54
2022-08-22T15:35:30.096Z,100059.34
2022-08-22T15:38:26.335Z,100057.27
2022-08-22T15:41:16.546Z,100054.17
2022-08-22T15:43:49.250Z,100046.71
2022-08-22T15:46:25.821Z,100049.63
2022-08-22T15:49:05.380Z,100046.20
2022-08-22T15:51:50.308Z,100035.07
2022-08-22T15:54:24.804Z,100033.63
2022-08-22T15:56:53.719Z,100030.83
2022-08-22T15:59:54.306Z,100024.60
2022-08-22T16:02:53.031Z,100027.34
2022-08-22T16:05:26.080Z,100032.27
2022-08-22T16:08:11.911Z,100031.14
2022-08-22T16:10:43.110Z,100033.16
2022-08-22T16:13:26.543Z,100034.46
2022-08-22T16:15:57.414Z,100035.08
2022-08-22T16:18:42.407Z,100034.95
2022-08-22T16:21:31.455Z,100034.36
2022-08-22T16:23:58.981Z,100030.77
2022-08-22T16:26:29.270Z,100030.13
2022-08-22T16:28:59.492Z,100031.62
2022-08-22T16:31:43.078Z,100032.84
2022-08-22T16:34:16.259Z,100037.99
2022-08-22T16:37:10.300Z,100038.70
2022-08-22T16:39:56.000Z,100039.80
2022-08-22T16:42:27.548Z,100036.55
2022-08-22T16:44:54.937Z,100035.70
2022-08-22T16:47:41.585Z,100037.80
2022-08-22T16:50:30.244Z,100039.73
2022-08-22T16:53:04.535Z,100036.08
2022-08-22T16:55:35.717Z,100040.77
2022-08-22T16:58:32.458Z,100048.19
2022-08-22T17:01:23.799Z,100047.38
2022-08-22T17:04:07.997Z,100048.60
2022-08-22T17:06:57.737Z,100053.17
2022-08-22T17:09:53.980Z,100056.70
2022-08-22T17:12:40.586Z,100067.47
2022-08-22T17:15:39.985Z,100071.16
2022-08-22T17:18:13.381Z,100079.35
2022-08-22T17:20:49.443Z,100081.44
2022-08-22T17:23:48.851Z,100083.59
2022-08-22T17:26:28.608Z,100087.48
2022-08-22T17:29:11.044Z,100091.09
2022-08-22T17:31:53.504Z,100091.73
2022-08-22T17:34:52.910Z,100093.46
2022-08-22T17:37:22.945Z,100092.20
2022-08-22T17:40:07.440Z,100089.32
2022-08-22T17:42:49.385Z,100094.84
2022-08-22T17:45:35.651Z,100095.75
2022-08-22T17:48:24.755Z,100101.45
2022-08-22T17:50:57.980Z,100100.16
2022-08-22T17:53:45.147Z,100097.70
2022-08-22T17:56:33.777Z,100093.75
2022-08-22T17:59:09.422Z,100094.55
2022-08-22T18:01:44.335Z,100099.92
2022-08-22T18:04:47.402Z,100094.85
2022-08-22T18:07:29.985Z,100096.56
2022-08-22T18:10:14.476Z,100099.88
2022-08-22T18:13:07.067Z,100101.19
2022-08-22T18:15:47.874Z,100102.34
2022-08-22T18:18:38.346Z,100104.48
2022-08-22T18:21:18.393Z,100112.85
2022-08-22T18:24:00.527Z,100117.47
2022-08-22T18:26:51.605Z,100119.45
2022-08-22T18:29:31.418Z,100121.55
2022-08-22T18:32:12.489Z,100118.23
2022-08-22T18:34:46.147Z,100121.46
2022-08-22T18:37:41.733Z,100133.73
2022-08-22T18:40:25.897Z,100133.05
2022-08-22T18:43:25.927Z,100133.50
2022-08-22T18:46:02.830Z,100128.20
2022-08-22T18:49:12.073Z,100125.06
2022-08-22T18:51:38.174Z,100117.65
2022-08-22T18:54:06.831Z,100118.13
2022-08-22T18:56:37.567Z,100125.61
2022-08-22T18:59:08.099Z,100130.27
2022-08-22T19:01:56.423Z,100132.67
2022-08-22T19:04:40.180Z,100130.56
2022-08-22T19:07:40.331Z,100132.37
2022-08-22T19:10:16.931Z,100132.11
2022-08-22T19:12:51.301Z,100135.17
2022-08-22T19:15:33.576Z,100135.85
2022-08-22T19:18:04.168Z,100136.63
2022-08-22T19:20:55.009Z,100136.02
2022-08-22T19:23:43.626Z,100138.63
2022-08-22T19:26:30.197Z,100143.77
2022-08-22T19:29:24.168Z,100144.15
2022-08-22T19:31:59.064Z,100145.74
2022-08-22T19:34:28.597Z,100147.31
2022-08-22T19:37:32.135Z,100150.63
2022-08-22T19:40:11.850Z,100152.73
2022-08-22T19:42:43.024Z,100150.34
2022-08-22T19:45:19.468Z,100154.33
2022-08-22T19:47:59.761Z,100148.92
2022-08-22T19:50:35.487Z,100144.89
2022-08-22T19:53:24.535Z,100142.02
2022-08-22T19:55:58.387Z,100140.25
2022-08-22T19:59:00.618Z,100147.80
2022-08-22T20:01:40.451Z,100147.16
2022-08-22T20:04:11.058Z,100144.58
2022-08-22T20:06:51.597Z,100145.12
2022-08-22T20:09:51.040Z,100145.17
2022-08-22T20:12:29.908Z,100140.09
2022-08-22T20:14:57.673Z,100138.66
2022-08-22T20:17:25.070Z,100137.29
2022-08-22T20:20:29.743Z,100133.09
2022-08-22T20:23:11.092Z,100137.21
2022-08-22T20:25:49.499Z,100137.77
2022-08-22T20:28:40.186Z,100136.27
2022-08-22T20:31:18.992Z,100129.39
2022-08-22T20:33:51.245Z,100121.36
2022-08-22T20:36:27.626Z,100125.27
2022-08-22T20:39:09.133Z,100125.67
2022-08-22T20:41:49.811Z,100122.55
2022-08-22T20:44:22.532Z,100120.48
2022-08-22T20:47:08.486Z,100120.43
2022-08-22T20:49:45.629Z,100121.20
2022-08-22T20:52:31.646Z,100126.88
2022-08-22T20:55:08.223Z,100126.63
2022-08-22T20:57:45.923Z,100125.42
2022-08-22T21:00:18.989Z,100123.95
2022-08-22T21:02:56.804Z,100120.73
2022-08-22T21:05:32.788Z,100120.85
2022-08-22T21:08:15.399Z,100115.81
2022-08-22T21:10:58.817Z,100114.04
2022-08-22T21:13:36.386Z,100110.08
2022-08-22T21:16:35.803Z,100106.56
2022-08-22T21:19:03.317Z,100108.23
2022-08-22T21:21:33.816Z,100103.73
2022-08-22T21:24:06.678Z,100105.41
2022-08-22T21:26:38.713Z,100105.66
2022-08-22T21:29:08.787Z,100103.39
2022-08-22T21:31:48.593Z,100099.10
2022-08-22T21:34:33.962Z,100097.98
2022-08-22T21:37:12.782Z,100093.09
2022-08-22T21:39:50.137Z,100092.25
2022-08-22T21:42:38.616Z,100091.63
2022-08-22T21:45:28.033Z,100090.11
2022-08-22T21:47:56.497Z,100089.06
2022-08-22T21:50:23.929Z,100087.88
2022-08-22T21:52:54.297Z,100084.30
2022-08-22T21:55:21.695Z,100084.61
2022-08-22T21:58:07.322Z,100077.52
2022-08-22T22:00:59.011Z,100073.12
2022-08-22T22:03:34.427Z,100080.35
2022-08-22T22:06:05.297Z,100079.87
2022-08-22T22:08:33.545Z,100081.01
2022-08-22T22:11:06.210Z,100085.42
2022-08-22T22:13:36.253Z,100086.25
2022-08-22T22:16:06.713Z,100087.38
2022-08-22T22:18:35.857Z,100086.50
2022-08-22T22:21:03.751Z,100083.30
2022-08-22T22:23:31.511Z,100078.42
2022-08-22T22:26:03.036Z,100076.77
2022-08-22T22:28:34.701Z,100075.09
2022-08-22T22:31:03.486Z,100072.70
2022-08-22T22:33:34.554Z,100075.27
2022-08-22T22:36:18.591Z,100076.58
2022-08-22T22:38:47.033Z,100081.05
2022-08-22T22:41:14.590Z,100076.70
2022-08-22T22:43:42.923Z,100082.63
2022-08-22T22:46:10.499Z,100074.63
2022-08-22T22:48:38.004Z,100070.26
2022-08-22T22:51:11.133Z,100072.92
2022-08-22T22:53:40.362Z,100073.46
2022-08-22T22:56:22.210Z,100072.50
2022-08-22T22:58:59.222Z,100071.17
2022-08-22T23:02:02.462Z,100069.57
2022-08-22T23:04:31.131Z,100069.23
2022-08-22T23:06:58.682Z,100067.25
2022-08-22T23:09:28.246Z,100062.05
2022-08-22T23:12:06.743Z,100058.48
2022-08-22T23:14:35.424Z,100064.10
2022-08-22T23:17:03.603Z,100065.66
2022-08-22T23:19:31.589Z,100067.09
2022-08-22T23:22:00.940Z,100064.84
2022-08-22T23:24:31.109Z,100067.40
2022-08-22T23:26:59.893Z,100069.59
2022-08-22T23:29:27.928Z,100070.59
2022-08-22T23:31:59.077Z,100069.15
2022-08-22T23:34:30.134Z,100067.35
2022-08-22T23:37:01.894Z,100057.69
2022-08-22T23:39:32.662Z,100059.84
2022-08-22T23:42:02.161Z,100053.52
2022-08-22T23:44:32.884Z,100055.30
2022-08-22T23:47:00.681Z,100061.06
2022-08-22T23:49:29.304Z,100056.02
2022-08-22T23:51:57.965Z,100057.36
2022-08-22T23:54:25.853Z,100055.36
2022-08-22T23:56:56.329Z,100051.48
2022-08-22T23:59:30.573Z,100048.85
